createdAt,value
2023-04-15T00:00:47.863Z,1.72
2023-04-15T00:01:47.933Z,1.89
2023-04-15T00:02:47.979Z,1.61
2023-04-15T00:03:48.081Z,1.72
2023-04-15T00:04:48.067Z,1.89
2023-04-15T00:06:47.835Z,1.06
2023-04-15T00:07:47.856Z,1.72
2023-04-15T00:08:47.845Z,1.72
2023-04-15T00:09:47.854Z,1.33
2023-04-15T00:10:47.892Z,1.33
2023-04-15T00:11:47.859Z,1.17
2023-04-15T00:13:47.857Z,1.06
2023-04-15T00:14:47.861Z,1.5
2023-04-15T00:15:47.858Z,1.33
2023-04-15T00:16:47.907Z,1.5
2023-04-15T00:17:47.915Z,1.5
2023-04-15T00:18:47.871Z,1.17
2023-04-15T00:19:47.866Z,1.5
2023-04-15T00:20:47.902Z,1.5
2023-04-15T00:22:47.864Z,1.72
2023-04-15T00:23:47.874Z,1.5
2023-04-15T00:25:47.862Z,1.06
2023-04-15T00:27:47.883Z,1.33
2023-04-15T00:28:47.859Z,1.17
2023-04-15T00:29:47.870Z,1.17
2023-04-15T00:31:47.873Z,1.33
2023-04-15T00:32:47.974Z,1.06
2023-04-15T00:34:47.874Z,1.06
2023-04-15T00:35:47.870Z,1.06
2023-04-15T00:36:47.896Z,0.72
2023-04-15T00:37:47.876Z,0.72
2023-04-15T00:38:47.912Z,1.06
2023-04-15T00:39:47.898Z,1.17
2023-04-15T00:40:47.894Z,0.89
2023-04-15T00:42:47.884Z,1.06
2023-04-15T00:43:47.881Z,0.61
2023-04-15T00:44:47.880Z,1.06
2023-04-15T00:45:47.887Z,1.17
2023-04-15T00:46:47.883Z,1.33
2023-04-15T00:47:47.943Z,0.61
2023-04-15T00:48:47.888Z,1.06
2023-04-15T00:49:47.899Z,0.89
2023-04-15T00:51:47.889Z,1.06
2023-04-15T00:52:47.928Z,1.06
2023-04-15T00:54:47.903Z,1.5
2023-04-15T00:55:47.918Z,1.33
2023-04-15T00:56:47.909Z,1.33
2023-04-15T00:57:47.898Z,1.33
2023-04-15T00:58:47.895Z,1.5
2023-04-15T00:59:47.905Z,1.17
2023-04-15T01:00:47.901Z,0.89
2023-04-15T01:01:47.990Z,1.33
2023-04-15T01:02:47.970Z,1.33
2023-04-15T01:04:47.937Z,1.17
2023-04-15T01:05:47.909Z,1.06
2023-04-15T01:07:47.922Z,1.5
2023-04-15T01:08:47.948Z,1.5
2023-04-15T01:09:47.905Z,1.33
2023-04-15T01:10:47.902Z,1.61
2023-04-15T01:12:47.916Z,1.5
2023-04-15T01:13:47.918Z,1.83
2023-04-15T01:14:47.917Z,1.33
2023-04-15T01:15:47.981Z,1.72
2023-04-15T01:16:47.923Z,1.61
2023-04-15T01:17:47.937Z,1.5
2023-04-15T01:18:47.904Z,1.5
2023-04-15T01:19:47.924Z,1.72
2023-04-15T01:21:47.919Z,1.61
2023-04-15T01:22:47.922Z,1.61
2023-04-15T01:23:47.908Z,1.61
2023-04-15T01:24:47.945Z,1.5
2023-04-15T01:25:47.905Z,1.72
2023-04-15T01:26:47.916Z,1.72
2023-04-15T01:27:47.965Z,2
2023-04-15T01:29:47.921Z,2
2023-04-15T01:30:47.928Z,2
2023-04-15T01:31:47.962Z,2
2023-04-15T01:32:47.950Z,2
2023-04-15T01:33:47.904Z,2.17
2023-04-15T01:34:47.933Z,2.17
2023-04-15T01:36:47.945Z,2.28
2023-04-15T01:38:47.925Z,2.17
2023-04-15T01:39:47.908Z,2.28
2023-04-15T01:40:47.952Z,2.17
2023-04-15T01:42:47.921Z,2.17
2023-04-15T01:43:47.918Z,2.17
2023-04-15T01:44:47.944Z,2.17
2023-04-15T01:45:47.927Z,1.72
2023-04-15T01:47:47.963Z,1.89
2023-04-15T01:48:47.918Z,1.5
2023-04-15T01:49:47.924Z,1.72
2023-04-15T01:50:47.958Z,1.61
2023-04-15T01:51:47.917Z,1.72
2023-04-15T01:52:47.935Z,1.89
2023-04-15T01:54:47.940Z,1.89
2023-04-15T01:55:47.938Z,2
2023-04-15T01:56:47.968Z,1.89
2023-04-15T01:57:47.926Z,1.72
2023-04-15T01:58:47.927Z,1.72
2023-04-15T02:00:47.973Z,1.89
2023-04-15T02:01:47.969Z,1.72
2023-04-15T02:02:47.980Z,1.72
2023-04-15T02:03:48.321Z,1.72
2023-04-15T02:04:47.939Z,1.5
2023-04-15T02:06:47.944Z,1.33
2023-04-15T02:08:47.936Z,1.5
2023-04-15T02:09:47.927Z,1.33
2023-04-15T02:10:47.955Z,1.61
2023-04-15T02:12:47.957Z,1.61
2023-04-15T02:14:47.946Z,1.33
2023-04-15T02:16:48.052Z,1.33
2023-04-15T02:17:47.990Z,1.61
2023-04-15T02:18:47.970Z,1.61
2023-04-15T02:19:47.934Z,1.33
2023-04-15T02:20:47.936Z,1.5
2023-04-15T02:21:47.932Z,1.5
2023-04-15T02:22:47.955Z,1.72
2023-04-15T02:24:47.958Z,1.72
2023-04-15T02:25:53.199Z,1.61
2023-04-15T02:26:47.939Z,1.72
2023-04-15T02:27:47.947Z,1.61
2023-04-15T02:28:47.971Z,1.72
2023-04-15T02:30:47.946Z,1.33
2023-04-15T02:31:47.959Z,1.5
2023-04-15T02:32:47.966Z,1.17
2023-04-15T02:34:47.976Z,1.33
2023-04-15T02:35:47.979Z,1.5
2023-04-15T02:36:47.972Z,1.61
2023-04-15T02:37:47.954Z,1.33
2023-04-15T02:38:47.967Z,1.61
2023-04-15T02:39:47.964Z,1.06
2023-04-15T02:40:47.967Z,1.5
2023-04-15T02:41:47.970Z,1.61
2023-04-15T02:42:47.964Z,1.5
2023-04-15T02:43:47.970Z,1.17
2023-04-15T02:44:47.994Z,1.61
2023-04-15T02:46:47.968Z,1.17
2023-04-15T02:47:47.984Z,1.61
2023-04-15T02:48:47.971Z,1.5
2023-04-15T02:49:47.996Z,1.33
2023-04-15T02:50:48.124Z,1.33
2023-04-15T02:52:48.010Z,1.33
2023-04-15T02:53:47.968Z,1.5
2023-04-15T02:55:47.977Z,1.5
2023-04-15T02:57:47.976Z,1.5
2023-04-15T02:59:47.976Z,1.33
2023-04-15T03:00:48.002Z,1.5
2023-04-15T03:01:48.173Z,1.33
2023-04-15T03:02:48.064Z,1.72
2023-04-15T03:03:48.034Z,1.72
2023-04-15T03:05:47.962Z,1.33
2023-04-15T03:06:47.973Z,1.5
2023-04-15T03:08:47.989Z,1.33
2023-04-15T03:10:47.975Z,1.5
2023-04-15T03:12:47.981Z,1.5
2023-04-15T03:13:47.975Z,1.17
2023-04-15T03:14:47.979Z,1.61
2023-04-15T03:15:48.022Z,1.17
2023-04-15T03:16:48.007Z,1.72
2023-04-15T03:17:48.017Z,1.5
2023-04-15T03:18:47.986Z,1.61
2023-04-15T03:20:47.983Z,1.61
2023-04-15T03:21:47.983Z,1.89
2023-04-15T03:22:48.005Z,1.61
2023-04-15T03:23:47.992Z,1.72
2023-04-15T03:24:48.009Z,1.61
2023-04-15T03:26:48.007Z,1.5
2023-04-15T03:27:47.990Z,1.5
2023-04-15T03:28:47.998Z,1.72
2023-04-15T03:29:47.998Z,1.72
2023-04-15T03:30:48.171Z,1.61
2023-04-15T03:31:47.997Z,1.61
2023-04-15T03:32:48.057Z,1.72
2023-04-15T03:34:48.002Z,1.5
2023-04-15T03:35:47.992Z,1.33
2023-04-15T03:36:48.011Z,1.72
2023-04-15T03:38:48.017Z,1.5
2023-04-15T03:39:48.008Z,1.72
2023-04-15T03:41:48.022Z,1.72
2023-04-15T03:43:48.004Z,1.72
2023-04-15T03:45:48.021Z,1.72
2023-04-15T03:46:48.206Z,1.33
2023-04-15T03:47:48.071Z,1.61
2023-04-15T03:48:48.036Z,1.72
2023-04-15T03:50:48.010Z,1.61
2023-04-15T03:51:48.027Z,1.33
2023-04-15T03:53:48.071Z,1.5
2023-04-15T03:55:48.031Z,1.06
2023-04-15T03:56:48.017Z,1.33
2023-04-15T03:57:48.025Z,1.33
2023-04-15T03:58:48.029Z,1.33
2023-04-15T04:00:48.028Z,1.06
2023-04-15T04:01:48.152Z,1.33
2023-04-15T04:03:48.227Z,1.17
2023-04-15T04:04:48.186Z,1.17
2023-04-15T04:06:48.028Z,1.33
2023-04-15T04:07:48.046Z,1.33
2023-04-15T04:08:48.051Z,1.06
2023-04-15T04:10:48.036Z,1.33
2023-04-15T04:11:48.035Z,1.5
2023-04-15T04:13:48.044Z,1.33
2023-04-15T04:14:48.027Z,1.5
2023-04-15T04:15:48.074Z,1.5
2023-04-15T04:16:48.079Z,1.5
2023-04-15T04:18:48.033Z,1.33
2023-04-15T04:19:48.048Z,1.33
2023-04-15T04:20:48.079Z,1.33
2023-04-15T04:22:48.052Z,1.06
2023-04-15T04:23:48.042Z,1.06
2023-04-15T04:24:48.046Z,1.17
2023-04-15T04:25:48.044Z,1.06
2023-04-15T04:26:48.045Z,1.33
2023-04-15T04:27:48.055Z,1.5
2023-04-15T04:29:48.050Z,1.5
2023-04-15T04:30:48.069Z,1.06
2023-04-15T04:32:48.087Z,1.17
2023-04-15T04:33:48.052Z,1.61
2023-04-15T04:34:48.066Z,1.17
2023-04-15T04:35:48.051Z,1.33
2023-04-15T04:36:48.098Z,1.33
2023-04-15T04:38:48.061Z,1.33
2023-04-15T04:39:48.064Z,1.33
2023-04-15T04:41:48.075Z,1.33
2023-04-15T04:42:48.071Z,1.33
2023-04-15T04:43:48.064Z,1.33
2023-04-15T04:44:48.063Z,1.33
2023-04-15T04:45:48.114Z,1.33
2023-04-15T04:46:48.079Z,1.33
2023-04-15T04:47:48.169Z,1.33
2023-04-15T04:48:48.059Z,1.17
2023-04-15T04:49:48.089Z,1.33
2023-04-15T04:51:48.066Z,1.33
2023-04-15T04:52:48.102Z,1.33
2023-04-15T04:54:48.107Z,1.33
2023-04-15T04:55:48.072Z,1.06
2023-04-15T04:56:48.072Z,1.33
2023-04-15T04:57:48.086Z,1.06
2023-04-15T04:58:48.090Z,1.5
2023-04-15T04:59:48.077Z,1.5
2023-04-15T05:00:48.124Z,1.06
2023-04-15T05:01:48.139Z,0.89
2023-04-15T05:02:48.419Z,1.17
2023-04-15T05:04:48.077Z,1.17
2023-04-15T05:05:48.080Z,1.33
2023-04-15T05:06:48.101Z,1.06
2023-04-15T05:07:48.077Z,1.33
2023-04-15T05:08:48.203Z,1.33
2023-04-15T05:10:48.077Z,1.5
2023-04-15T05:11:48.087Z,1.17
2023-04-15T05:12:48.091Z,1.17
2023-04-15T05:13:48.091Z,1.61
2023-04-15T05:14:48.088Z,1.33
2023-04-15T05:15:48.159Z,1.33
2023-04-15T05:16:48.121Z,1.61
2023-04-15T05:18:48.092Z,1.33
2023-04-15T05:19:48.113Z,1.5
2023-04-15T05:20:48.107Z,1.61
2023-04-15T05:22:48.088Z,1.17
2023-04-15T05:23:48.114Z,1.33
2023-04-15T05:24:48.166Z,1.17
2023-04-15T05:26:48.110Z,1.5
2023-04-15T05:27:48.114Z,1.5
2023-04-15T05:28:48.139Z,1.33
2023-04-15T05:29:48.107Z,0.89
2023-04-15T05:31:48.114Z,1.17
2023-04-15T05:32:48.137Z,1.33
2023-04-15T05:33:48.109Z,1.33
2023-04-15T05:34:48.114Z,1.17
2023-04-15T05:35:48.114Z,0.89
2023-04-15T05:37:48.129Z,1.17
2023-04-15T05:38:48.122Z,0.72
2023-04-15T05:40:48.151Z,1.17
2023-04-15T05:42:48.121Z,1.17
2023-04-15T05:43:48.112Z,1.33
2023-04-15T05:44:48.119Z,1.33
2023-04-15T05:45:48.164Z,1.5
2023-04-15T05:46:48.140Z,1.33
2023-04-15T05:48:48.124Z,1.17
2023-04-15T05:49:48.136Z,1.06
2023-04-15T05:50:48.126Z,1.17
2023-04-15T05:51:48.123Z,1.5
2023-04-15T05:52:48.129Z,1.06
2023-04-15T05:54:48.135Z,1.17
2023-04-15T05:56:48.249Z,1.33
2023-04-15T05:58:48.161Z,1.33
2023-04-15T05:59:48.131Z,1.33
2023-04-15T06:00:48.151Z,1.33
2023-04-15T06:01:48.240Z,1.33
2023-04-15T06:02:48.173Z,1.17
2023-04-15T06:03:48.251Z,1.33
2023-04-15T06:04:48.164Z,1.33
2023-04-15T06:05:48.129Z,1.17
2023-04-15T06:06:48.154Z,1.17
2023-04-15T06:08:48.155Z,1.33
2023-04-15T06:09:48.130Z,1.5
2023-04-15T06:10:48.135Z,1.5
2023-04-15T06:12:48.234Z,1.5
2023-04-15T06:14:48.156Z,1.33
2023-04-15T06:15:48.160Z,1.17
2023-04-15T06:16:48.139Z,1.06
2023-04-15T06:17:48.168Z,1.17
2023-04-15T06:18:48.143Z,0.89
2023-04-15T06:19:48.145Z,1.5
2023-04-15T06:21:48.147Z,1.33
2023-04-15T06:22:48.153Z,1.5
2023-04-15T06:24:48.161Z,0.89
2023-04-15T06:25:48.141Z,1.17
2023-04-15T06:26:48.149Z,0.89
2023-04-15T06:27:48.153Z,1.33
2023-04-15T06:28:48.180Z,1.33
2023-04-15T06:29:48.149Z,1.33
2023-04-15T06:30:48.155Z,1.17
2023-04-15T06:31:48.156Z,1.17
2023-04-15T06:32:48.152Z,1.33
2023-04-15T06:33:48.155Z,1.33
2023-04-15T06:34:48.138Z,1.33
2023-04-15T06:35:48.169Z,1.33
2023-04-15T06:37:48.153Z,1.17
2023-04-15T06:38:48.153Z,1.06
2023-04-15T06:39:48.150Z,1.5
2023-04-15T06:40:48.157Z,1.61
2023-04-15T06:41:48.165Z,1.5
2023-04-15T06:43:48.152Z,1.33
2023-04-15T06:44:48.173Z,0.89
2023-04-15T06:45:48.171Z,1.5
2023-04-15T06:46:48.158Z,1.33
2023-04-15T06:47:48.196Z,1.06
2023-04-15T06:48:48.165Z,1.17
2023-04-15T06:49:48.157Z,1.33
2023-04-15T06:50:48.145Z,0.89
2023-04-15T06:51:48.167Z,1.17
2023-04-15T06:52:48.150Z,1.33
2023-04-15T06:53:48.152Z,1.61
2023-04-15T06:54:48.145Z,1.61
2023-04-15T06:55:48.153Z,1.61
2023-04-15T06:57:48.160Z,1.61
2023-04-15T06:58:48.153Z,1.5
2023-04-15T06:59:48.174Z,1.5
2023-04-15T07:00:48.203Z,1.61
2023-04-15T07:01:48.177Z,1.61
2023-04-15T07:02:48.222Z,1.61
2023-04-15T07:03:48.196Z,1.61
2023-04-15T07:04:48.181Z,1.72
2023-04-15T07:05:48.163Z,1.72
2023-04-15T07:06:48.184Z,1.33
2023-04-15T07:08:48.206Z,1.5
2023-04-15T07:10:48.166Z,1.5
2023-04-15T07:12:48.170Z,1.33
2023-04-15T07:13:48.178Z,1.33
2023-04-15T07:14:48.170Z,1.33
2023-04-15T07:15:48.170Z,1.5
2023-04-15T07:16:48.217Z,1.61
2023-04-15T07:17:48.223Z,1.33
2023-04-15T07:18:48.174Z,1.33
2023-04-15T07:19:48.182Z,1.72
2023-04-15T07:20:48.192Z,1.61
2023-04-15T07:21:48.200Z,1.61
2023-04-15T07:23:48.191Z,1.89
2023-04-15T07:24:48.201Z,1.33
2023-04-15T07:25:48.182Z,1.61
2023-04-15T07:26:48.181Z,1.72
2023-04-15T07:27:48.179Z,1.72
2023-04-15T07:28:48.197Z,1.89
2023-04-15T07:30:48.237Z,1.61
2023-04-15T07:31:48.205Z,2
2023-04-15T07:32:48.279Z,1.72
2023-04-15T07:34:48.204Z,2
2023-04-15T07:35:48.193Z,2
2023-04-15T07:36:48.189Z,1.72
2023-04-15T07:37:48.197Z,2
2023-04-15T07:38:48.201Z,1.61
2023-04-15T07:39:48.194Z,2.17
2023-04-15T07:40:48.217Z,2
2023-04-15T07:42:48.249Z,2
2023-04-15T07:43:48.192Z,1.89
2023-04-15T07:44:48.207Z,2
2023-04-15T07:45:48.243Z,1.89
2023-04-15T07:46:48.209Z,2.17
2023-04-15T07:47:48.259Z,1.89
2023-04-15T07:48:48.234Z,2.28
2023-04-15T07:49:48.200Z,1.89
2023-04-15T07:50:48.209Z,2
2023-04-15T07:51:48.214Z,2
2023-04-15T07:52:48.218Z,1.72
2023-04-15T07:53:48.222Z,1.89
2023-04-15T07:54:48.206Z,2.17
2023-04-15T07:55:48.218Z,2
2023-04-15T07:57:48.217Z,2.17
2023-04-15T07:58:48.211Z,2.17
2023-04-15T07:59:48.213Z,2.17
2023-04-15T08:00:48.218Z,1.89
2023-04-15T08:01:48.328Z,1.89
2023-04-15T08:02:48.446Z,2
2023-04-15T08:04:48.360Z,2.17
2023-04-15T08:05:48.214Z,1.89
2023-04-15T08:06:48.257Z,2.28
2023-04-15T08:07:48.233Z,2.44
2023-04-15T08:09:48.240Z,2.61
2023-04-15T08:11:48.223Z,2.89
2023-04-15T08:12:48.227Z,2.28
2023-04-15T08:14:48.225Z,2.44
2023-04-15T08:15:48.268Z,2.89
2023-04-15T08:17:48.246Z,2.72
2023-04-15T08:18:48.239Z,2.89
2023-04-15T08:19:48.228Z,2.89
2023-04-15T08:20:48.247Z,3.17
2023-04-15T08:22:48.225Z,2.89
2023-04-15T08:23:48.227Z,2.61
2023-04-15T08:24:48.226Z,3
2023-04-15T08:25:48.234Z,3
2023-04-15T08:26:48.236Z,3.33
2023-04-15T08:27:48.220Z,3.17
2023-04-15T08:28:48.226Z,3.44
2023-04-15T08:29:48.238Z,3.33
2023-04-15T08:30:48.236Z,3.17
2023-04-15T08:31:48.304Z,2.89
2023-04-15T08:32:48.316Z,3.17
2023-04-15T08:33:48.225Z,3.17
2023-04-15T08:35:48.247Z,3
2023-04-15T08:36:48.253Z,2.61
2023-04-15T08:37:48.228Z,2.89
2023-04-15T08:38:48.235Z,3
2023-04-15T08:40:48.248Z,3.33
2023-04-15T08:41:48.271Z,3
2023-04-15T08:43:48.240Z,3
2023-04-15T08:44:48.237Z,3.17
2023-04-15T08:45:48.228Z,3.17
2023-04-15T08:46:48.275Z,3.17
2023-04-15T08:48:48.247Z,2.72
2023-04-15T08:49:48.242Z,3.17
2023-04-15T08:50:48.240Z,2.44
2023-04-15T08:51:48.250Z,3
2023-04-15T08:52:48.295Z,3
2023-04-15T08:54:48.252Z,2.61
2023-04-15T08:55:48.242Z,3.33
2023-04-15T08:56:48.290Z,3
2023-04-15T08:57:48.240Z,3
2023-04-15T08:58:48.250Z,2.89
2023-04-15T09:00:48.263Z,3.44
2023-04-15T09:02:48.343Z,3.17
2023-04-15T09:03:48.313Z,3.44
2023-04-15T09:05:48.258Z,2.72
2023-04-15T09:06:48.259Z,2.89
2023-04-15T09:07:48.265Z,3
2023-04-15T09:08:48.278Z,3
2023-04-15T09:09:48.248Z,3.17
2023-04-15T09:10:48.260Z,2.94
2023-04-15T09:11:48.255Z,2.72
2023-04-15T09:13:48.262Z,2.72
2023-04-15T09:15:48.249Z,2.83
2023-04-15T09:16:50.333Z,3
2023-04-15T09:17:48.265Z,3.17
2023-04-15T09:18:48.255Z,3.28
2023-04-15T09:19:48.255Z,3.28
2023-04-15T09:20:48.261Z,3.17
2023-04-15T09:22:48.265Z,3.33
2023-04-15T09:23:48.276Z,3.5
2023-04-15T09:24:48.303Z,3.61
2023-04-15T09:25:48.245Z,3.33
2023-04-15T09:26:48.258Z,3.78
2023-04-15T09:27:48.251Z,3.61
2023-04-15T09:28:48.244Z,3.56
2023-04-15T09:29:48.242Z,3.61
2023-04-15T09:30:49.866Z,3.78
2023-04-15T09:31:48.248Z,4
2023-04-15T09:32:48.267Z,3.94
2023-04-15T09:34:48.265Z,3.89
2023-04-15T09:35:48.256Z,4.11
2023-04-15T09:37:48.259Z,3.94
2023-04-15T09:39:48.261Z,4.22
2023-04-15T09:40:48.299Z,4.17
2023-04-15T09:41:48.250Z,4
2023-04-15T09:42:50.252Z,3.89
2023-04-15T09:43:48.269Z,4.28
2023-04-15T09:45:48.275Z,4.11
2023-04-15T09:46:48.253Z,4.11
2023-04-15T09:48:48.251Z,4.11
2023-04-15T09:49:48.331Z,4.39
2023-04-15T09:51:57.873Z,3.78
2023-04-15T09:52:48.248Z,3.67
2023-04-15T09:53:48.246Z,4.11
2023-04-15T09:54:48.253Z,4.11
2023-04-15T09:55:48.252Z,4.11
2023-04-15T09:56:48.290Z,4.39
2023-04-15T09:57:48.248Z,4.11
2023-04-15T09:58:48.264Z,4.11
2023-04-15T10:00:48.256Z,3.94
2023-04-15T10:01:48.417Z,3.94
2023-04-15T10:03:48.398Z,3.78
2023-04-15T10:05:48.263Z,3.94
2023-04-15T10:06:48.276Z,3.67
2023-04-15T10:07:48.329Z,3.67
2023-04-15T10:08:48.258Z,3.39
2023-04-15T10:09:48.271Z,3.78
2023-04-15T10:10:48.310Z,4.11
2023-04-15T10:12:48.325Z,3.39
2023-04-15T10:13:48.264Z,3.78
2023-04-15T10:14:48.270Z,3.94
2023-04-15T10:15:48.283Z,3.78
2023-04-15T10:16:48.274Z,3.67
2023-04-15T10:17:48.319Z,3.56
2023-04-15T10:19:48.313Z,3.56
2023-04-15T10:20:48.317Z,3.67
2023-04-15T10:22:48.280Z,3.78
2023-04-15T10:23:48.304Z,3.67
2023-04-15T10:25:48.291Z,3.78
2023-04-15T10:27:48.282Z,3.94
2023-04-15T10:28:48.330Z,4.22
2023-04-15T10:30:48.310Z,3.78
2023-04-15T10:32:48.300Z,3.78
2023-04-15T10:33:48.294Z,3.78
2023-04-15T10:35:48.300Z,3.94
2023-04-15T10:37:48.295Z,4.11
2023-04-15T10:38:48.288Z,3.94
2023-04-15T10:39:48.287Z,3.78
2023-04-15T10:40:48.296Z,3.94
2023-04-15T10:41:48.315Z,3.94
2023-04-15T10:42:48.288Z,3.78
2023-04-15T10:43:48.306Z,4.11
2023-04-15T10:44:48.331Z,4.11
2023-04-15T10:45:48.293Z,4.22
2023-04-15T10:46:48.315Z,4.39
2023-04-15T10:48:48.303Z,4.39
2023-04-15T10:49:48.302Z,4.5
2023-04-15T10:50:48.302Z,4.22
2023-04-15T10:51:48.296Z,4.22
2023-04-15T10:52:48.297Z,4.5
2023-04-15T10:53:48.303Z,4.67
2023-04-15T10:54:48.305Z,4.5
2023-04-15T10:55:48.297Z,4.67
2023-04-15T10:56:48.305Z,4.94
2023-04-15T10:57:48.305Z,4.5
2023-04-15T11:00:48.335Z,5.11
2023-04-15T11:02:48.426Z,4.83
2023-04-15T11:03:48.413Z,4.83
2023-04-15T11:04:48.393Z,4.94
2023-04-15T11:05:48.337Z,5.22
2023-04-15T11:06:48.300Z,4.83
2023-04-15T11:07:48.301Z,5.22
2023-04-15T11:08:48.369Z,5.39
2023-04-15T11:09:48.310Z,5.39
2023-04-15T11:10:48.301Z,5.22
2023-04-15T11:11:48.322Z,4.94
2023-04-15T11:13:48.324Z,4.94
2023-04-15T11:15:48.314Z,4.94
2023-04-15T11:16:48.423Z,4.94
2023-04-15T11:17:48.328Z,4.94
2023-04-15T11:18:48.308Z,4.94
2023-04-15T11:19:48.302Z,4.94
2023-04-15T11:20:48.322Z,4.94
2023-04-15T11:21:48.312Z,5.39
2023-04-15T11:22:48.320Z,5.39
2023-04-15T11:24:48.320Z,5.67
2023-04-15T11:25:48.318Z,5.39
2023-04-15T11:27:48.323Z,5.39
2023-04-15T11:28:48.325Z,5.22
2023-04-15T11:29:48.311Z,5.11
2023-04-15T11:30:48.305Z,5.56
2023-04-15T11:31:48.357Z,5.56
2023-04-15T11:32:48.359Z,5.22
2023-04-15T11:34:48.308Z,5.22
2023-04-15T11:35:48.336Z,5.39
2023-04-15T11:36:48.329Z,5.67
2023-04-15T11:37:48.331Z,5.56
2023-04-15T11:39:48.323Z,4.83
2023-04-15T11:40:48.324Z,4.94
2023-04-15T11:41:48.327Z,5.11
2023-04-15T11:42:50.090Z,5.11
2023-04-15T11:43:48.329Z,5.39
2023-04-15T11:44:48.344Z,5.39
2023-04-15T11:46:48.330Z,5.56
2023-04-15T11:48:48.467Z,5.39
2023-04-15T11:50:48.337Z,5.22
2023-04-15T11:52:48.350Z,5.39
2023-04-15T11:53:48.352Z,5.56
2023-04-15T11:55:48.341Z,5.39
2023-04-15T11:56:48.341Z,5.39
2023-04-15T11:57:48.340Z,5.67
2023-04-15T11:58:48.330Z,5.56
2023-04-15T11:59:48.334Z,5.39
2023-04-15T12:00:48.337Z,5.67
2023-04-15T12:01:48.370Z,5.39
2023-04-15T12:03:48.438Z,5.56
2023-04-15T12:04:48.462Z,5.39
2023-04-15T12:06:48.349Z,5.67
2023-04-15T12:07:48.338Z,5.39
2023-04-15T12:08:48.345Z,5.39
2023-04-15T12:09:48.351Z,5.39
2023-04-15T12:10:48.347Z,5.39
2023-04-15T12:11:48.369Z,5.39
2023-04-15T12:12:48.352Z,5.56
2023-04-15T12:13:48.342Z,5.78
2023-04-15T12:14:48.349Z,5.56
2023-04-15T12:15:48.357Z,5.11
2023-04-15T12:16:49.925Z,5.22
2023-04-15T12:17:51.233Z,5.22
2023-04-15T12:18:48.382Z,5.39
2023-04-15T12:20:48.377Z,5.22
2023-04-15T12:22:48.361Z,4.94
2023-04-15T12:24:48.360Z,4.94
2023-04-15T12:25:48.377Z,5.39
2023-04-15T12:26:48.378Z,5.39
2023-04-15T12:27:48.372Z,5.39
2023-04-15T12:28:48.369Z,5.11
2023-04-15T12:29:48.382Z,5.39
2023-04-15T12:30:48.366Z,5.11
2023-04-15T12:31:48.379Z,4.83
2023-04-15T12:32:48.378Z,4.83
2023-04-15T12:33:48.381Z,5.22
2023-04-15T12:35:48.377Z,5.11
2023-04-15T12:36:48.407Z,5.22
2023-04-15T12:38:48.384Z,5.39
2023-04-15T12:40:48.395Z,5.22
2023-04-15T12:41:48.384Z,5.22
2023-04-15T12:42:48.385Z,5.39
2023-04-15T12:43:48.375Z,5.11
2023-04-15T12:44:48.386Z,5.11
2023-04-15T12:45:48.388Z,5.39
2023-04-15T12:47:48.399Z,4.94
2023-04-15T12:48:48.416Z,4.94
2023-04-15T12:49:48.393Z,5.22
2023-04-15T12:50:48.389Z,5.11
2023-04-15T12:51:48.391Z,5.22
2023-04-15T12:52:48.420Z,5.39
2023-04-15T12:54:48.403Z,5.67
2023-04-15T12:55:48.389Z,5.22
2023-04-15T12:56:48.397Z,5.39
2023-04-15T12:57:48.400Z,5.22
2023-04-15T12:58:48.394Z,5.39
2023-04-15T12:59:48.411Z,5.39
2023-04-15T13:00:48.393Z,5.39
2023-04-15T13:01:48.432Z,5.39
2023-04-15T13:02:48.764Z,5.56
2023-04-15T13:03:48.470Z,5.78
2023-04-15T13:05:48.410Z,5.67
2023-04-15T13:06:48.415Z,5.39
2023-04-15T13:07:48.401Z,5.78
2023-04-15T13:08:58.071Z,5.39
2023-04-15T13:10:48.408Z,5.94
2023-04-15T13:11:48.415Z,5.39
2023-04-15T13:12:48.411Z,5.78
2023-04-15T13:13:48.408Z,5.67
2023-04-15T13:14:48.412Z,5.78
2023-04-15T13:15:48.429Z,5.94
2023-04-15T13:16:48.429Z,5.78
2023-04-15T13:17:48.452Z,5.39
2023-04-15T13:18:48.418Z,5.94
2023-04-15T13:19:48.417Z,5.56
2023-04-15T13:20:48.419Z,5.78
2023-04-15T13:21:48.435Z,5.78
2023-04-15T13:23:48.425Z,6.22
2023-04-15T13:24:48.453Z,5.94
2023-04-15T13:26:50.188Z,6.22
2023-04-15T13:28:48.431Z,6.06
2023-04-15T13:29:48.430Z,6.06
2023-04-15T13:30:48.417Z,5.67
2023-04-15T13:31:48.441Z,6.22
2023-04-15T13:32:50.436Z,6.22
2023-04-15T13:33:48.428Z,6.22
2023-04-15T13:34:48.425Z,5.94
2023-04-15T13:36:48.441Z,5.94
2023-04-15T13:37:48.436Z,6.22
2023-04-15T13:38:50.551Z,5.78
2023-04-15T13:39:48.431Z,5.78
2023-04-15T13:40:48.472Z,5.94
2023-04-15T13:41:48.432Z,6.06
2023-04-15T13:42:48.451Z,5.78
2023-04-15T13:43:48.434Z,5.94
2023-04-15T13:44:48.440Z,5.94
2023-04-15T13:45:48.476Z,5.78
2023-04-15T13:46:48.438Z,6.06
2023-04-15T13:47:48.457Z,6.06
2023-04-15T13:48:48.449Z,6.06
2023-04-15T13:49:48.452Z,5.94
2023-04-15T13:50:48.451Z,6.06
2023-04-15T13:51:48.467Z,6.06
2023-04-15T13:53:48.451Z,5.67
2023-04-15T13:55:48.450Z,6.06
2023-04-15T13:56:48.474Z,6.22
2023-04-15T13:57:48.451Z,6.06
2023-04-15T13:58:48.462Z,6.22
2023-04-15T13:59:48.463Z,6.22
2023-04-15T14:00:48.486Z,6.22
2023-04-15T14:01:48.707Z,6.22
2023-04-15T14:02:48.588Z,5.67
2023-04-15T14:03:48.612Z,5.78
2023-04-15T14:04:48.465Z,5.78
2023-04-15T14:05:48.467Z,5.67
2023-04-15T14:07:48.476Z,5.56
2023-04-15T14:09:48.459Z,5.94
2023-04-15T14:10:48.457Z,5.67
2023-04-15T14:11:48.477Z,5.78
2023-04-15T14:12:48.500Z,5.67
2023-04-15T14:13:48.463Z,5.78
2023-04-15T14:14:48.470Z,5.67
2023-04-15T14:15:48.466Z,5.39
2023-04-15T14:16:48.500Z,5.56
2023-04-15T14:18:48.461Z,5.56
2023-04-15T14:19:48.476Z,5.67
2023-04-15T14:21:48.470Z,5.22
2023-04-15T14:23:48.472Z,5.22
2023-04-15T14:24:48.470Z,5.39
2023-04-15T14:25:48.615Z,5.56
2023-04-15T14:26:48.479Z,5.39
2023-04-15T14:27:48.464Z,5.39
2023-04-15T14:28:48.545Z,5.22
2023-04-15T14:30:48.533Z,5.11
2023-04-15T14:32:48.497Z,5.22
2023-04-15T14:34:48.480Z,5.11
2023-04-15T14:35:48.473Z,4.94
2023-04-15T14:36:48.961Z,5.11
2023-04-15T14:37:48.491Z,5.11
2023-04-15T14:38:48.796Z,5.39
2023-04-15T14:39:48.482Z,4.67
2023-04-15T14:40:48.488Z,5.22
2023-04-15T14:41:48.497Z,5.39
2023-04-15T14:42:48.507Z,5.22
2023-04-15T14:43:48.476Z,5.22
2023-04-15T14:44:48.536Z,4.83
2023-04-15T14:45:48.517Z,5.22
2023-04-15T14:46:48.489Z,5.11
2023-04-15T14:47:48.524Z,5.22
2023-04-15T14:49:48.489Z,5.22
2023-04-15T14:50:48.487Z,5.39
2023-04-15T14:51:48.501Z,5.11
2023-04-15T14:52:48.485Z,5.22
2023-04-15T14:53:48.501Z,4.83
2023-04-15T14:54:48.496Z,4.94
2023-04-15T14:55:48.489Z,5.39
2023-04-15T14:56:48.494Z,5.39
2023-04-15T14:57:48.516Z,5.22
2023-04-15T14:59:48.509Z,4.94
2023-04-15T15:00:48.525Z,5.22
2023-04-15T15:02:48.574Z,4.94
2023-04-15T15:03:48.544Z,4.94
2023-04-15T15:04:48.629Z,4.83
2023-04-15T15:05:48.741Z,4.94
2023-04-15T15:06:49.180Z,4.94
2023-04-15T15:07:48.501Z,4.39
2023-04-15T15:08:48.514Z,4.67
2023-04-15T15:09:48.518Z,4.94
2023-04-15T15:10:49.861Z,4.67
2023-04-15T15:11:48.513Z,4.83
2023-04-15T15:12:48.535Z,4.67
2023-04-15T15:13:48.503Z,4.83
2023-04-15T15:14:48.533Z,4.67
2023-04-15T15:15:48.524Z,4.94
2023-04-15T15:16:48.538Z,4.94
2023-04-15T15:17:48.540Z,4.67
2023-04-15T15:18:48.537Z,4.67
2023-04-15T15:20:48.544Z,4.5
2023-04-15T15:21:48.522Z,4.67
2023-04-15T15:22:48.513Z,4.39
2023-04-15T15:23:48.539Z,4.11
2023-04-15T15:24:48.529Z,4.5
2023-04-15T15:26:48.536Z,4.5
2023-04-15T15:28:48.524Z,4.5
2023-04-15T15:29:48.530Z,4.39
2023-04-15T15:31:48.533Z,4.39
2023-04-15T15:32:48.623Z,3.94
2023-04-15T15:33:48.536Z,4.5
2023-04-15T15:34:48.548Z,4.5
2023-04-15T15:35:48.537Z,4.39
2023-04-15T15:36:48.559Z,4.5
2023-04-15T15:37:48.558Z,4.5
2023-04-15T15:38:48.533Z,4.11
2023-04-15T15:39:48.544Z,4.11
2023-04-15T15:40:48.543Z,4.11
2023-04-15T15:41:48.554Z,4.22
2023-04-15T15:42:48.532Z,4.11
2023-04-15T15:43:48.546Z,3.94
2023-04-15T15:45:48.541Z,3.78
2023-04-15T15:46:48.559Z,4.22
2023-04-15T15:47:48.644Z,4.39
2023-04-15T15:48:48.563Z,4.11
2023-04-15T15:49:48.540Z,3.78
2023-04-15T15:50:48.553Z,3.78
2023-04-15T15:51:48.556Z,4.11
2023-04-15T15:53:48.567Z,4.11
2023-04-15T15:55:48.547Z,4.11
2023-04-15T15:56:48.557Z,3.94
2023-04-15T15:57:48.545Z,3.94
2023-04-15T15:58:48.556Z,4.11
2023-04-15T15:59:48.722Z,4.11
2023-04-15T16:01:48.626Z,4.11
2023-04-15T16:03:05.605Z,4.11
2023-04-15T16:03:48.850Z,3.78
2023-04-15T16:04:48.600Z,3.78
2023-04-15T16:06:48.582Z,3.94
2023-04-15T16:07:48.581Z,3.78
2023-04-15T16:09:48.562Z,3.94
2023-04-15T16:11:48.563Z,3.67
2023-04-15T16:13:48.579Z,3.56
2023-04-15T16:15:48.558Z,3.39
2023-04-15T16:16:48.593Z,3.78
2023-04-15T16:17:48.587Z,3.78
2023-04-15T16:19:55.736Z,3.56
2023-04-15T16:20:48.588Z,3.67
2023-04-15T16:22:48.576Z,3.78
2023-04-15T16:24:48.564Z,3.78
2023-04-15T16:26:48.560Z,3.78
2023-04-15T16:27:59.211Z,3.56
2023-04-15T16:29:48.570Z,3.67
2023-04-15T16:31:48.586Z,3.78
2023-04-15T16:32:48.620Z,3.67